Tiempo atmosférico en la estación meteorológica de Albacete, Albacete (674 m.)



Fecha
DESCASC
Temp. máxima en grados centígrados (hora)
DESCASC
Temp. mínima en grados centígrados (hora)
DESCASC
Temp. media en grados centígrados
DESCASC
Racha de viento máxima en m/sg (hora)
DESCASC
Velocidad máxima media en intervalos de 10 minutos(hora)
DESCASC
Precipitaciones diarias en mm
DESCASC
Precipitaciones de 00:00 a 06:00 en mm
DESCASC
Precipitaciones de 06:00 a 12:00 en mm
DESCASC
Precipitaciones de 12:00 a 18:00 en mm
DESCASC
Precipitaciones de 18:00 a 24:00 en mm
DESCASC
23-06-2019 34.6 (17:10) 17.3 (08:00) 25.9 9.17 (17:40) 3.33 (17:20) 0 0 0 0 0
22-06-2019 31.9 (16:30) 16.7 (04:30) 24.3 9.44 (19:50) 2.5 (19:50) 0 0 0 0 0
21-06-2019 31.7 (19:00) 15.9 (07:50) 23.8 8.89 (22:10) 4.17 (22:10) 0 0 0 0 0
20-06-2019 32.6 (18:10) 16 (00:00) 24.3 6.94 (22:50) 2.22 (22:50) 0 0 0 0 0
19-06-2019 32.3 (17:40) 16.9 (00:00) 24.6 10.28 (18:00) 4.44 (19:10) 0 0 0 0 0
18-06-2019 32.6 (18:00) 16.8 (00:00) 24.7 8.33 (18:30) 2.78 (18:40) 0 0 0 0 0
17-06-2019 32 (17:30) 14.6 (00:00) 23.3 7.78 (21:40) 2.5 (01:20) 0 0 0 0 0
16-06-2019 28.2 (15:40) 12.1 (00:00) 20.2 8.33 (15:50) 2.78 (11:10) 0 0 0 0 0
15-06-2019 27.8 (18:20) 11.4 (00:00) 19.6 6.67 (11:30) 2.78 (09:10) 0 0 0 0 0
14-06-2019 26.7 (18:00) 13.7 (00:00) 20.2 12.22 (16:40) 4.17 (16:30) 9.5 2.7 6.8 0 0
13-06-2019 27.7 (16:30) 13.3 (00:00) 20.5 9.17 (17:50) 2.78 (19:20) 0 0 0 0 0
12-06-2019 25.2 (17:10) 8.1 (00:00) 16.7 8.61 (13:30) 3.06 (21:50) 0 0 0 0 0
11-06-2019 24.9 (16:10) 14 (00:00) 19.4 9.72 (16:20) 3.06 (13:40) 0 0 0 0 0
10-06-2019 27.6 (17:10) 13.6 (00:00) 20.6 8.33 (12:40) 2.78 (13:30) 0 0 0 0 0
09-06-2019 29.3 (17:30) 13.6 (00:00) 21.4 10 (19:00) 3.33 (15:40) 0 0 0 0 0
08-06-2019 26.7 (17:20) 11.1 (00:00) 18.9 10.83 (14:10) 3.89 (09:50) 0 0 0 0 0
07-06-2019 25.6 (17:50) 13.2 (00:00) 19.4 10 (11:40) 4.17 (11:40) 0 0 0 0 0
06-06-2019 27.8 (17:20) 10.9 (00:00) 19.3 9.44 (15:10) 3.33 (20:00) 0 0 0 0 0
05-06-2019 23.7 (00:00) 14.9 (00:00) 19.3 12.5 (10:20) 5 (10:00) 0 0 0 0 0
04-06-2019 31.9 (16:10) 17.7 (00:00) 24.8 10.56 (18:10) 4.44 (20:00) 0 0 0 0 0
03-06-2019 34.3 (16:40) 16.6 (00:00) 25.4 8.33 (18:30) 3.06 (20:00) 0 0 0 0 0
02-06-2019 32.7 (18:10) 13.7 (00:00) 23.2 7.22 (22:20) 2.78 (22:20) 0 0 0 0 0
01-06-2019 30.1 (15:20) 11.1 (00:00) 20.6 10 (15:40) 2.5 (18:50) 0 0 0 0 0
31-05-2019 28.5 (16:30) 11 (00:00) 19.8 7.22 (19:20) 2.5 (19:20) 0 0 0 0 0
30-05-2019 27.2 (17:10) 9.6 (00:00) 18.4 7.22 (16:30) 2.22 (23:10) 0 0 0 0 0
29-05-2019 26.4 (18:00) 9.4 (00:00) 17.9 7.5 (22:40) 2.78 (22:40) 0 0 0 0 0
28-05-2019 28.5 (17:50) 12.5 (00:00) 20.5 9.44 (17:30) 3.06 (16:20) 0 0 0 0 0

Gráficas

Temp. máximas Temp. mínimas Temp. medias Precipitaciones Rachas de viento máximas Velocidades máximas media en intervalos de 10 minutos

Datos horarios

Fecha y hora oficial Temperatura (ºC) Velocidad del viento (km/h) Dirección del viento Racha (km/h) Dirección de racha Precipitación (mm) Presión (hPa) Tendencia (hPa) Humedad (%)
2019-06-26 23:00:00 26 5 Este 27 Este 0 941.7 2.9 46
2019-06-26 22:00:00 27.2 9 Este 30 Nordeste 0 940.9 2.6 40
2019-06-26 21:00:00 30.6 10 Este 29 Este 0 939.6 1.1 35
2019-06-26 20:00:00 33 10 Este 31 Nordeste 0 938.8 0.1 33
2019-06-26 19:00:00 34.6 10 Sudeste 30 Este 0 938.3 -1 28
2019-06-26 18:00:00 35.5 11 Sudeste 31 Sudeste 0 938.5 -1.6 25
2019-06-26 17:00:00 35.4 9 Este 29 Este 0 938.7 -2 28
2019-06-26 16:00:00 34 7 Este 21 Este 0 939.3 -2.1 34
2019-06-26 15:00:00 32.3 9 Este 22 Este 0 940.1 -1.4 38
2019-06-26 14:00:00 29.8 6 Este 23 Nordeste 0 940.7 -0.8 43
2019-06-26 13:00:00 27.3 5 Sudeste 21 Este 0 941.4 -0.2 47
2019-06-26 12:00:00 25.5 5 Sudeste 17 Este 0 941.5 -0.3 51
2019-06-26 11:00:00 23.6 5 Sudeste 17 Norte 0 941.5 0.2 57
2019-06-26 10:00:00 21.1 4 Nordeste 13 Norte 0 941.6 0.7 74
2019-06-26 09:00:00 18.5 4 Este 13 Este 0 941.8 1.5 88
2019-06-26 08:00:00 17 4 Este 13 Sudeste 0 941.3 1.5 90
2019-06-26 07:00:00 16.7 4 Este 10 Sudeste 0 940.9 1.2 93
2019-06-26 06:00:00 17 2 Nordeste 10 Este 0 940.3 -0.1 93
2019-06-26 05:00:00 17.6 3 Nordeste 10 Este 0 939.8 -1.5 93
2019-06-26 04:00:00 18.3 3 Nordeste 11 Norte 0 939.7 -1.3 91
2019-06-26 03:00:00 19.4 4 Este 14 Este 0 940.4 -0.4 88
2019-06-26 02:00:00 21.2 4 Nordeste 15 Sudeste 0 941.3 1.5 77
2019-06-26 01:00:00 22.2 10 Sudeste 20 Este 0 941 2.4 71
2019-06-26 00:00:00 23.6 5 Sudeste 23 Sudeste 0 940.8 3.4 66
2019-06-25 23:00:00 25.2 8 Este 24 Este 0 939.8 2.6 58
2019-06-25 22:00:00 27.8 8 Este 26 Sudeste 0 938.6 1.6 53
2019-06-25 21:00:00 30.3 11 Sudeste 32 Sudeste 0 937.4 0.1 46
2019-06-25 20:00:00 33.9 8 Sudeste 28 Sudeste 0 937.2 -0.3 37
2019-06-25 19:00:00 35.3 9 Sudeste 29 Sudeste 0 937 -0.8 30
2019-06-25 18:00:00 36.4 10 Sudeste 25 Sur 0 937.3 -0.9 25
2019-06-25 17:00:00 36.6 8 Sudeste 21 Sudeste 0 937.5 -1.5 26
2019-06-25 16:00:00 36.3 5 Sudeste 22 Sudeste 0 937.8 -1.8 28
2019-06-25 15:00:00 34.8 5 Este 18 Este 0 938.2 -1.3 32
2019-06-25 14:00:00 32.3 4 Este 13 Este 0 939 -0.6 36
2019-06-25 13:00:00 29.1 2 Noroeste 10 Sur 0 939.6 -0.1 39
2019-06-25 12:00:00 26.7 3 Noroeste 10 Este 0 939.5 -0.1 45
2019-06-25 11:00:00 24.3 2 Oeste 9 Oeste 0 939.6 0.3 51
2019-06-25 10:00:00 21.5 2 Sudoeste 6 Sur 0 939.7 0.8 60
2019-06-25 09:00:00 18 0 Calma 7 Este 0 939.6 1.2 68
2019-06-25 08:00:00 16.5 4 Este 10 Este 0 939.3 1 69
2019-06-25 07:00:00 16.8 3 Nordeste 6 Este 0 938.9 0.1 65
2019-06-25 06:00:00 17.2 0 Calma 5 Nordeste 0 938.4 -0.2 63
2019-06-25 05:00:00 18 3 Este 6 Este 0 938.3 -0.4 59
2019-06-25 04:00:00 19.3 2 Nordeste 8 Este 0 938.8 0.1 53
2019-06-25 03:00:00 20.5 3 Este 16 Sudeste 0 938.6 0.2 44
2019-06-25 02:00:00 21.5 6 Sudeste 22 Sudeste 0 938.7 0.7 42
2019-06-25 01:00:00 22.3 8 Sudeste 24 Sudeste 0 938.7 1.5 43
2019-06-25 00:00:00 23.8 8 Sudeste 19 Sudeste 0 938.4 2.2 43
2019-06-24 23:00:00 25.3 5 Este 15 Este 0 938 2.2 42
2019-06-24 22:00:00 27.1 6 Este 17 Este 0 937.2 1.7 42
2019-06-24 21:00:00 28.5 5 Nordeste 22 Este 0 936.2 0.7 40
2019-06-24 20:00:00 31 7 Nordeste 26 Norte 0 935.8 0.1 36
2019-06-24 19:00:00 33 7 Nordeste 20 Este 0 935.5 -0.8 32
2019-06-24 18:00:00 34.3 8 Nordeste 22 Este 0 935.5 -0.9 30
2019-06-24 17:00:00 33.7 3 Norte 15 Norte 0 935.7 -1.5 29
2019-06-24 16:00:00 32.9 2 Noroeste 12 Sudeste 0 936.3 -1.2 30
2019-06-24 15:00:00 32.8 5 Este 21 Este 0 936.4 -1.3 31
2019-06-24 14:00:00 30.2 5 Sudeste 15 Este 0 937.2 -0.8 33
2019-06-24 13:00:00 27.8 0 Calma 13 Este 0 937.5 -0.8 36
2019-06-24 12:00:00 25.1 4 Este 11 Este 0 937.7 -0.5 40
2019-06-24 11:00:00 22.4 4 Este 12 Nordeste 0 938 0.2 50
2019-06-24 10:00:00 20.2 3 Este 8 Este 0 938.3 0.5 57
2019-06-24 09:00:00 17.2 2 Este 6 Este 0 938.2 0.6 66
2019-06-24 08:00:00 15.4 2 Nordeste 6 Nordeste 0 937.8 -0.1 67
2019-06-24 07:00:00 15.1 2 Nordeste 8 Nordeste 0 937.8 -0.1 64
2019-06-24 06:00:00 15.4 2 Este 8 Este 0 937.6 -1 61
2019-06-24 05:00:00 16.8 0 Calma 8 Este 0 937.9 -0.9 58
2019-06-24 04:00:00 17.9 4 Este 9 Este 0 937.9 -0.8 56
2019-06-24 03:00:00 18.8 5 Este 10 Este 0 938.6 -0.2 53
2019-06-24 02:00:00 19.8 3 Este 12 Sudeste 0 938.8 0.6 50
2019-06-24 01:00:00 20.9 6 Sudeste 18 Este 0 938.7 2 47
2019-06-24 00:00:00 21.9 3 Sur 23 Sudeste 0 938.8 3 44
2019-06-23 23:00:00 23.5 9 Sur 21 Sur 0 938.2 3.2 39
2019-06-23 22:00:00 26.2 7 Sudeste 25 Sudeste 0 936.7 1.9 34
2019-06-23 21:00:00 29 5 Sur 21 Este 0 935.8 0.6 30
2019-06-23 20:00:00 32.3 8 Sudeste 24 Sudoeste 0 935 -0.5 23
2019-06-23 19:00:00 33.1 9 Sudeste 28 Sudeste 0 934.8 -1.4 26
2019-06-23 18:00:00 33.6 10 Sudeste 33 Sur 0 935.2 -1.6 26
2019-06-23 17:00:00 34.3 5 Sur 27 Sudeste 0 935.5 -1.9 23
2019-06-23 16:00:00 33.6 6 Sur 22 Sur 0 936.2 -1.6 23
2019-06-23 15:00:00 32.7 5 Sudeste 24 Sudoeste 0 936.8 -1.1 24
2019-06-23 14:00:00 31.5 6 Sudeste 25 Sudeste 0 937.4 -0.8 26
2019-06-23 13:00:00 30.1 8 Sudeste 23 Sudoeste 0 937.8 -0.5 28
2019-06-23 12:00:00 27.9 8 Sudeste 25 Sudeste 0 937.9 -0.8 31
2019-06-23 11:00:00 25.3 4 Sur 16 Sudoeste 0 938.2 0.1 37
2019-06-23 10:00:00 22.6 3 Sudeste 9 Sudeste 0 938.3 0.2 44
2019-06-23 09:00:00 19.8 0 Calma 13 Sudeste 0 938.7 0.8 52
2019-06-23 08:00:00 17.3 4 Este 13 Sudeste 0 938.1 0.7 67
2019-06-23 07:00:00 17.7 4 Sudeste 12 Sudeste 0 938.1 0.3 60
2019-06-23 06:00:00 18.1 4 Sudeste 18 Este 0 937.9 -0.2 61
2019-06-23 05:00:00 18.3 8 Sudeste 21 Sudeste 0 937.4 -1 63
2019-06-23 04:00:00 18.9 7 Sudeste 17 Sudeste 0 937.8 -0.4 59
2019-06-23 03:00:00 19.4 5 Sudeste 17 Sudeste 0 938.1 0.2 57
2019-06-23 02:00:00 20.4 4 Sudeste 21 Este 0 938.4 0.6 55
2019-06-23 01:00:00 21.4 8 Sudeste 26 Sudeste 0 938.2 1 50
2019-06-23 00:00:00 22 7 Sur 31 Sur 0 937.9 1.1 48
2019-06-22 23:00:00 23.3 8 Sudeste 28 Sudeste 0 937.8 1.3 44
2019-06-22 22:00:00 25 4 Sur 23 Sur 0 937.2 0.9 40
2019-06-22 21:00:00 26.9 8 Sudeste 26 Sur 0 936.8 0.2 37
2019-06-22 20:00:00 28.6 7 Sur 34 Sudoeste 0 936.5 -0.2 36
2019-06-22 19:00:00 30.2 7 Sudeste 23 Sudoeste 0 936.3 -1.1 34
2019-06-22 18:00:00 30 8 Sur 24 Sur 0 936.6 -1.3 33
2019-06-22 17:00:00 31.4 6 Sudeste 27 Sudeste 0 936.7 -1.9 31
2019-06-22 16:00:00 31.3 5 Sudeste 25 Sudeste 0 937.4 -1.6 30
2019-06-22 15:00:00 30.4 6 Sudeste 26 Este 0 937.9 -1.7 33
2019-06-22 14:00:00 28.9 6 Sudeste 26 Sudeste 0 938.6 -1.1 39
2019-06-22 13:00:00 26.7 5 Sudeste 16 Sudeste 0 939 -1.1 45
2019-06-22 12:00:00 24.4 7 Este 19 Este 0 939.6 -0.5 53
2019-06-22 11:00:00 22.7 3 Sudeste 18 Sudeste 0 939.7 -0.1 58
2019-06-22 10:00:00 20.8 8 Sudeste 20 Este 0 940.1 0.5 67
2019-06-22 09:00:00 18.3 4 Este 15 Este 0 940.1 0.9 79
2019-06-22 08:00:00 17.2 5 Este 18 Sudeste 0 939.8 0.6 80
2019-06-22 07:00:00 16.8 7 Sudeste 18 Sudeste 0 939.6 0.1 78
2019-06-22 06:00:00 17.2 4 Sudeste 13 Sudeste 0 939.2 -0.5 77
2019-06-22 05:00:00 16.9 4 Sudeste 9 Sudeste 0 939.2 -0.7 77
2019-06-22 04:00:00 17 4 Este 9 Este 0 939.5 -0.2 76
2019-06-22 03:00:00 17.6 3 Este 7 Este 0 939.7 0.5 70
2019-06-22 02:00:00 18.1 0 Calma 9 Este 0 939.9 1.2 66
2019-06-22 01:00:00 19.4 5 Este 19 Este 0 939.7 2.4 61
2019-06-22 00:00:00 20.2 8 Este 23 Sudeste 0 939.2 2.6 62
2019-06-21 23:00:00 22.5 7 Este 32 Sur 0 938.7 2.7 61
2019-06-21 22:00:00 25.5 13 Sudeste 31 Sudeste 0 937.3 1.8 50
2019-06-21 21:00:00 29.6 3 Nordeste 17 Oeste 0 936.6 0.9 26
2019-06-21 20:00:00 31.3 3 Noroeste 17 Oeste 0 936 -0.2 25
2019-06-21 19:00:00 31.7 2 Norte 22 Oeste 0 935.5 -1 25
2019-06-21 18:00:00 31 3 Noroeste 16 Noroeste 0 935.7 -1.3 26
2019-06-21 17:00:00 30.4 0 Calma 17 Sudoeste 0 936.2 -1.1 28
2019-06-21 16:00:00 29.2 5 Noroeste 18 Oeste 0 936.5 -1.3 30
2019-06-21 15:00:00 28.5 6 Oeste 20 Oeste 0 937 -0.6 31
2019-06-21 14:00:00 27.7 6 Oeste 18 Oeste 0 937.3 -0.6 33
2019-06-21 13:00:00 25.8 6 Oeste 16 Oeste 0 937.8 -0.2 40
2019-06-21 12:00:00 23.2 3 Noroeste 13 Noroeste 0 937.6 -0.4 50
2019-06-21 11:00:00 21 2 Noroeste 13 Oeste 0 937.9 0.1 57
2019-06-21 10:00:00 18.9 2 Norte 9 Norte 0 938 0.8 69
2019-06-21 09:00:00 17 2 Este 8 Este 0 938 1.2 85
2019-06-21 08:00:00 15.9 0 Calma 4 Este 0 937.8 1.5 83
2019-06-21 07:00:00 16.1 0 Calma 5 Norte 0 937.2 1.1 77
2019-06-21 06:00:00 17.3 0 Calma 8 Noroeste 0 936.8 0.6 63
2019-06-21 05:00:00 18.2 0 Calma 16 Sudoeste 0 936.3 0.1 57
2019-06-21 04:00:00 19.3 6 Oeste 20 Sudoeste 0 936.1 -0.2 54
2019-06-21 03:00:00 20.4 8 Sudoeste 19 Oeste 0 936.2 0 53
2019-06-21 02:00:00 21.5 8 Sudoeste 18 Sudoeste 0 936.2 0.4 56
2019-06-21 01:00:00 22.1 6 Sur 15 Sur 0 936.3 2 61
2019-06-21 00:00:00 23 4 Sudoeste 17 Sudoeste 0 936.2 2.2 58
2019-06-20 23:00:00 24.3 5 Sur 25 Sudoeste 0 935.8 2.1 52
2019-06-20 22:00:00 26.5 4 Sudeste 12 Sudeste 0 934.3 0.9 41
2019-06-20 21:00:00 29.2 3 Noroeste 18 Oeste 0 934 0.2 34
2019-06-20 20:00:00 30.8 5 Noroeste 20 Oeste 0 933.7 -0.5 29
2019-06-20 19:00:00 30.9 4 Oeste 13 Oeste 0 933.4 -1.6 28
2019-06-20 18:00:00 32.2 3 Oeste 15 Oeste 0 933.8 -1.7 29
2019-06-20 17:00:00 31.2 3 Noroeste 22 Oeste 0 934.2 -2.1 30
2019-06-20 16:00:00 30.2 4 Nordeste 17 Sudoeste 0 935 -1.7 32
2019-06-20 15:00:00 28.8 5 Oeste 16 Oeste 0 935.5 -1.4 34
2019-06-20 14:00:00 28.2 5 Sudoeste 18 Oeste 0 936.3 -0.9 36
2019-06-20 13:00:00 26.2 5 Sudoeste 18 Oeste 0 936.7 -0.6 40
2019-06-20 12:00:00 24.3 3 Noroeste 17 Oeste 0 936.9 -0.5 45
2019-06-20 11:00:00 22.6 4 Noroeste 17 Noroeste 0 937.2 0.1 50
2019-06-20 10:00:00 20.7 4 Noroeste 14 Sudoeste 0 937.3 0.2 55
2019-06-20 09:00:00 17.9 6 Oeste 16 Sudoeste 0 937.4 0.4 63
2019-06-20 08:00:00 16.4 6 Oeste 14 Sudoeste 0 937.1 -0.1 63
2019-06-20 07:00:00 16.3 6 Oeste 13 Oeste 0 937.1 -0.2 61
2019-06-20 06:00:00 17 5 Oeste 12 Oeste 0 937 -0.4 60
2019-06-20 05:00:00 17.7 6 Oeste 12 Oeste 0 937.2 -0.5 58
2019-06-20 04:00:00 17.9 5 Oeste 13 Sudoeste 0 937.3 -0.2 57
2019-06-20 03:00:00 18.4 4 Oeste 11 Sudoeste 0 937.4 0.1 53
2019-06-20 02:00:00 19.9 5 Oeste 17 Oeste 0 937.7 0.7 47
2019-06-20 01:00:00 21.4 5 Oeste 15 Oeste 0 937.5 1.2 43
2019-06-20 00:00:00 23.5 4 Oeste 11 Oeste 0 937.3 1.5 39
2019-06-19 23:00:00 24.8 3 Oeste 12 Oeste 0 937 1.5 37
2019-06-19 22:00:00 26.8 4 Oeste 24 Oeste 0 936.3 0.9 30
2019-06-19 21:00:00 28.8 7 Oeste 28 Oeste 0 935.8 0 23
2019-06-19 20:00:00 30.8 11 Oeste 34 Oeste 0 935.5 -0.7 22
2019-06-19 19:00:00 31.2 13 Oeste 31 Noroeste 0 935.4 -1.5 22
2019-06-19 18:00:00 31.5 10 Oeste 37 Oeste 0 935.8 -1.6 24
2019-06-19 17:00:00 31.3 0 Calma 23 Sudoeste 0 936.2 -1.9 32
2019-06-19 16:00:00 30.1 3 Norte 19 Este 0 936.9 -1.7 34
2019-06-19 15:00:00 28.7 4 Norte 21 Noroeste 0 937.4 -1.3 38
2019-06-19 14:00:00 26.8 2 Noroeste 24 Oeste 0 938.1 -0.8 42
2019-06-19 13:00:00 24.8 6 Oeste 27 Oeste 0 938.6 -0.5 46
2019-06-19 12:00:00 22.9 5 Oeste 23 Oeste 0 938.7 -0.2 53
2019-06-19 11:00:00 21.5 5 Noroeste 20 Noroeste 0 938.9 0.3 59
2019-06-19 10:00:00 20.3 5 Noroeste 21 Noroeste 0 939.1 0.7 62
2019-06-19 09:00:00 18.7 3 Noroeste 22 Oeste 0 938.9 0.9 68
2019-06-19 08:00:00 17.6 11 Oeste 25 Oeste 0 938.6 0.8 67
2019-06-19 07:00:00 16.9 8 Oeste 15 Sudoeste 0 938.4 0.8 65
2019-06-19 06:00:00 17.4 4 Oeste 13 Oeste 0 938 0.4 57
2019-06-19 05:00:00 17.7 4 Oeste 15 Oeste 0 937.8 -0.1 50
2019-06-19 04:00:00 18.7 6 Oeste 17 Oeste 0 937.6 -0.4 40
2019-06-19 03:00:00 20.2 8 Oeste 22 Sudoeste 0 937.6 -0.4 35
2019-06-19 02:00:00 21.2 5 Sudoeste 21 Sur 0 937.9 0.1 33
2019-06-19 01:00:00 23.5 6 Sudoeste 23 Noroeste 0 938 0.9 27
2019-06-19 00:00:00 24 6 Oeste 18 Oeste 0 938 1.4 27
2019-06-18 23:00:00 24.9 6 Oeste 17 Sudoeste 0 937.8 1.6 34
2019-06-18 22:00:00 26 5 Sudoeste 18 Sudoeste 0 937.1 1.4 39
2019-06-18 21:00:00 28 5 Sudoeste 21 Sudoeste 0 936.6 0.9 34
2019-06-18 20:00:00 30.2 5 Sur 22 Sur 0 936.2 0.4 28
2019-06-18 19:00:00 31.3 5 Sur 30 Sudoeste 0 935.7 -0.4 26
2019-06-18 18:00:00 32.2 5 Sur 24 Sur 0 935.7 -1 24
2019-06-18 17:00:00 31.6 9 Sudoeste 24 Sudoeste 0 935.8 -1.7 24
2019-06-18 16:00:00 31.4 5 Sudoeste 19 Sudoeste 0 936.1 -2 24
2019-06-18 15:00:00 30.7 2 Oeste 20 Sur 0 936.7 -1.5 25
2019-06-18 14:00:00 29.5 2 Noroeste 14 Sudoeste 0 937.5 -0.8 27
2019-06-18 13:00:00 27.8 3 Sur 12 Sudoeste 0 938.1 -0.6 30
2019-06-18 12:00:00 25.5 0 Calma 10 Norte 0 938.2 -0.6 34
2019-06-18 11:00:00 23.5 0 Calma 12 Oeste 0 938.3 -0.2 37
2019-06-18 10:00:00 20.9 2 Oeste 10 Sur 0 938.7 0.5 44
2019-06-18 09:00:00 18.9 3 Sur 12 Sur 0 938.8 0.6 47
2019-06-18 08:00:00 17.2 6 Sur 14 Sur 0 938.5 0.3 48
2019-06-18 07:00:00 17.1 4 Sudeste 13 Sudeste 0 938.2 0 49
2019-06-18 06:00:00 17 5 Sur 16 Sur 0 938.2 -0.2 50
2019-06-18 05:00:00 17.1 8 Sur 18 Sudoeste 0 938.2 -0.4 49
2019-06-18 04:00:00 18.1 3 Sur 20 Sudeste 0 938.2 -0.6 48
2019-06-18 03:00:00 18.7 5 Sur 28 Sudoeste 0 938.4 -0.3 47
2019-06-18 02:00:00 19.3 7 Sur 21 Sudoeste 0 938.6 0.3 47
2019-06-18 01:00:00 20.3 8 Sur 24 Sur 0 938.8 1.1 44
2019-06-18 00:00:00 21.4 8 Sudeste 28 Sudeste 0 938.7 1.3 41
2019-06-17 23:00:00 22.9 6 Sur 26 Sur 0 938.3 1.3 39
2019-06-17 22:00:00 24.6 8 Sur 28 Sur 0 937.7 0.8 37
2019-06-17 21:00:00 26.7 9 Sur 26 Sudeste 0 937.4 0.1 29
2019-06-17 20:00:00 29.4 6 Sur 24 Sur 0 937 -0.7 23
2019-06-17 19:00:00 30.9 6 Sur 20 Oeste 0 936.9 -1.4 23
2019-06-17 18:00:00 31.1 4 Sur 19 Sudoeste 0 937.3 -1.7 23
2019-06-17 17:00:00 31.6 6 Este 19 Oeste 0 937.7 -1.8 23
2019-06-17 16:00:00 30.9 2 Noroeste 19 Sudoeste 0 938.3 -1.8 24
2019-06-17 15:00:00 29.4 2 Oeste 14 Sudoeste 0 939 -1.7 24
2019-06-17 14:00:00 28.8 3 Este 14 Este 0 939.5 -1.3 27
2019-06-17 13:00:00 26.5 0 Calma 14 Sudoeste 0 940.1 -0.9 33
2019-06-17 12:00:00 24 0 Calma 12 Oeste 0 940.7 -0.3 40
2019-06-17 11:00:00 21.4 3 Noroeste 12 Oeste 0 940.8 0 47
2019-06-17 10:00:00 19.3 0 Calma 6 Noroeste 0 941 0.6 54
2019-06-17 09:00:00 17.3 0 Calma 8 Sudoeste 0 941 0.7 62
2019-06-17 08:00:00 15.4 2 Sur 7 Sudoeste 0 940.8 0.5 69
2019-06-17 07:00:00 14.9 0 Calma 4 Sudeste 0 940.4 0.2 71
2019-06-17 06:00:00 15.4 0 Calma 17 Sudeste 0 940.3 -0.4 69
2019-06-17 05:00:00 16 4 Sudeste 16 Sudeste 0 940.3 -0.5 68
2019-06-17 04:00:00 16.6 5 Sur 21 Sur 0 940.2 -0.6 67
2019-06-17 03:00:00 17.1 7 Sur 21 Sur 0 940.7 -0.4 65
2019-06-17 02:00:00 17.2 8 Sur 24 Sudoeste 0 940.8 -0.2 67
2019-06-17 01:00:00 17.9 6 Sur 27 Sudoeste 0 940.8 0.1 62
2019-06-17 00:00:00 18.7 6 Sudeste 22 Sudeste 0 941.1 1.3 57
2019-06-16 23:00:00 19.6 6 Sudeste 20 Sudeste 0 941 1.2 53
2019-06-16 22:00:00 20.9 7 Sudeste 24 Sudeste 0 940.7 0.8 50
2019-06-16 21:00:00 22.5 6 Sudeste 23 Sudeste 0 939.8 0.2 41
2019-06-16 20:00:00 23.9 9 Sudeste 28 Sudeste 0 939.8 -0.2 38
2019-06-16 19:00:00 24.1 6 Sur 19 Sur 0 939.9 -0.5 32
2019-06-16 18:00:00 24.8 6 Sudeste 27 Sudeste 0 939.6 -1.3 29
2019-06-16 17:00:00 25.5 9 Sur 30 Sur 0 940 -1.8 27
2019-06-16 16:00:00 27 9 Sudeste 30 Este 0 940.4 -1.7 25
2019-06-16 15:00:00 26.5 5 Sudeste 23 Sudoeste 0 940.9 -1.3 28
2019-06-16 14:00:00 25.3 9 Sudeste 24 Sudeste 0 941.8 -0.7 32
2019-06-16 13:00:00 23.3 6 Este 23 Sur 0 942.1 -0.5 37
2019-06-16 12:00:00 22 9 Sudeste 25 Sudeste 0 942.2 -0.2 42
2019-06-16 11:00:00 20.4 6 Este 23 Este 0 942.5 0.5 52
2019-06-16 10:00:00 17.1 5 Nordeste 13 Este 0 942.6 1.2 61
2019-06-16 09:00:00 14.1 6 Este 13 Este 0 942.4 1.7 68
2019-06-16 08:00:00 12.4 2 Este 8 Este 0 942 1.2 70
2019-06-16 07:00:00 12.1 0 Calma 5 Este 0 941.4 0.1 67
2019-06-16 06:00:00 12.4 3 Este 8 Este 0 940.7 -0.9 66
2019-06-16 05:00:00 13.1 3 Este 7 Este 0 940.8 -0.8 59
2019-06-16 04:00:00 14.2 2 Este 9 Este 0 941.3 -0.5 52
2019-06-16 03:00:00 16 2 Nordeste 4 Este 0 941.6 -0.1 50
2019-06-16 02:00:00 17.5 0 Calma 6 Sur 0 941.6 0.2 40
2019-06-16 01:00:00 18.2 3 Sur 8 Sur 0 941.8 1.3 39
2019-06-16 00:00:00 18.4 0 Calma 2 Este 0 941.7 1.6 37
2019-06-15 23:00:00 20.1 0 Calma 2 Noroeste 0 941.4 1.7 31
2019-06-15 22:00:00 22.3 0 Calma 6 Este 0 940.5 1.1 28
2019-06-15 21:00:00 24.9 0 Calma 13 Nordeste 0 940.1 0.7 25
2019-06-15 20:00:00 26.6 4 Nordeste 15 Norte 0 939.7 -0.3 23
2019-06-15 19:00:00 27.1 3 Nordeste 20 Nordeste 0 939.4 -0.8 23
2019-06-15 18:00:00 27.3 2 Norte 22 Este 0 939.4 -1.4 25
2019-06-15 17:00:00 26.4 5 Oeste 21 Oeste 0 940 -1.4 26
2019-06-15 16:00:00 24.6 6 Oeste 19 Oeste 0 940.2 -1.6 29
2019-06-15 15:00:00 23.5 5 Noroeste 20 Oeste 0 940.8 -1.1 31
2019-06-15 14:00:00 21.9 5 Oeste 21 Norte 0 941.4 -0.6 35
2019-06-15 13:00:00 19.7 8 Oeste 21 Oeste 0 941.8 -0.3 39
2019-06-15 12:00:00 18.1 6 Oeste 24 Sudoeste 0 941.9 0.2 43
2019-06-15 11:00:00 16.7 6 Oeste 19 Oeste 0 942 0.8 47
2019-06-15 10:00:00 15.1 7 Oeste 23 Oeste 0 942.1 1.3 50
2019-06-15 09:00:00 13 5 Oeste 15 Oeste 0 941.7 1.3 56
2019-06-15 08:00:00 11.6 4 Oeste 16 Oeste 0 941.2 1.2 56
2019-06-15 07:00:00 12.1 2 Oeste 14 Oeste 0 940.8 1 52
2019-06-15 06:00:00 13 4 Oeste 14 Sudoeste 0 940.4 0.4 48
2019-06-15 05:00:00 13.7 4 Oeste 12 Oeste 0 940 0.3 46
2019-06-15 04:00:00 14.7 6 Oeste 15 Oeste 0 939.8 0.2 43
2019-06-15 03:00:00 15.3 5 Sudoeste 18 Oeste 0 940 0.9 40
2019-06-15 02:00:00 15.9 5 Oeste 21 Oeste 0 939.7 1.4 38
2019-06-15 01:00:00 17 6 Oeste 19 Oeste 0 939.6 2.2 34
2019-06-15 00:00:00 18.2 6 Oeste 24 Oeste 0 939.1 2.4 29
2019-06-14 23:00:00 19.6 10 Sudoeste 27 Oeste 0 938.3 2.3 26
2019-06-14 22:00:00 21 10 Oeste 26 Oeste 0 937.4 2.1 21
2019-06-14 21:00:00 23.4 12 Oeste 35 Oeste 0 936.7 1.4 20
2019-06-14 20:00:00 25.3 12 Oeste 34 Oeste 0 936 0.5 22
2019-06-14 19:00:00 26 11 Sudoeste 33 Oeste 0 935.3 -0.2 24
2019-06-14 18:00:00 26.6 13 Oeste 33 Sudoeste 0 935.3 -0.5 23
2019-06-14 17:00:00 26.5 12 Oeste 44 Oeste 0 935.5 -0.3 23
2019-06-14 16:00:00 26 14 Oeste 36 Oeste 0 935.5 -0.4 25
2019-06-14 15:00:00 25.6 11 Oeste 28 Oeste 0 935.8 0.1 29
2019-06-14 14:00:00 24.2 9 Oeste 31 Sudoeste 0 935.8 0 30
2019-06-14 13:00:00 23.5 9 Oeste 23 Noroeste 0 935.9 0.5 32
2019-06-14 12:00:00 21.9 9 Oeste 24 Oeste 0 935.7 0.4 33
2019-06-14 11:00:00 19.6 5 Oeste 27 Oeste 1.3 935.8 1 40
2019-06-14 10:00:00 17.3 9 Oeste 19 Oeste 0.9 935.4 0.2 62
2019-06-14 09:00:00 14.3 0 Calma 6 Oeste 1.2 935.3 2.1 97
2019-06-14 08:00:00 13.8 3 Sudeste 18 Sur 1.1 934.8 1.8 96
2019-06-14 07:00:00 14.4 4 Sur 15 Sudeste 2.3 935.2 1.8 92
2019-06-14 06:00:00 14.5 0 Calma 9 Sudeste 2.7 933.2 -0.9 97
2019-06-14 05:00:00 14.4 0 Calma 10 Este 0 933 -1.3 82
2019-06-14 04:00:00 14.9 0 Calma 9 Este 0 933.4 -1.2 80
2019-06-14 03:00:00 15.3 0 Calma 8 Nordeste 0 934.1 -1 77
2019-06-14 02:00:00 16.1 2 Este 10 Este 0 934.3 -0.4 73
2019-06-14 01:00:00 16.7 5 Sudeste 15 Sudeste 0 934.6 1.1 70
2019-06-14 00:00:00 17.4 3 Este 15 Este 0 935.1 2.2 70
2019-06-13 23:00:00 18.2 7 Este 17 Este 0 934.7 2.2 67
2019-06-13 22:00:00 19.6 5 Este 21 Este 0 933.5 1.4 60
2019-06-13 21:00:00 22.5 9 Este 25 Este 0 932.9 0.7 52
2019-06-13 20:00:00 24.7 10 Este 25 Este 0 932.5 0.3 48
2019-06-13 19:00:00 25.4 8 Este 33 Norte 0 932.1 -0.8 47
2019-06-13 18:00:00 25.7 8 Nordeste 33 Este 0 932.2 -1.4 46
2019-06-13 17:00:00 27 5 Sur 21 Sudeste 0 932.2 -2 39
2019-06-13 16:00:00 26.9 4 Nordeste 20 Este 0 932.9 -2 41
2019-06-13 15:00:00 25.4 3 Este 23 Este 0 933.6 -1.7 44
2019-06-13 14:00:00 23.3 4 Sudeste 22 Sudeste 0 934.2 -1.7 50
2019-06-13 13:00:00 20.9 6 Este 23 Este 0 934.9 -0.9 59
2019-06-13 12:00:00 20 6 Sudeste 21 Sudeste 0 935.3 -0.5 63
2019-06-13 11:00:00 18.2 6 Sur 21 Este 0 935.9 0.3 70
2019-06-13 10:00:00 17.3 5 Sudeste 20 Norte 0 935.8 0.6 79
2019-06-13 09:00:00 15.6 3 Este 13 Este 0 935.8 0.9 87
2019-06-13 08:00:00 13.9 3 Este 10 Este 0 935.6 0.7 91
2019-06-13 07:00:00 13.5 3 Este 9 Nordeste 0 935.2 0.2 89
2019-06-13 06:00:00 14.4 2 Este 10 Sudeste 0 934.9 -0.3 87
2019-06-13 05:00:00 14.5 0 Calma 13 Sudeste 0 934.9 -0.6 85
2019-06-13 04:00:00 14.7 2 Este 23 Este 0 935 -0.8 83
2019-06-13 03:00:00 14.9 7 Sudeste 28 Sudeste 0 935.2 -0.4 84
2019-06-13 02:00:00 14.9 8 Sudeste 25 Sudeste 0 935.5 0.2 87
2019-06-13 01:00:00 15.2 6 Sudeste 18 Sur 0 935.8 1.5 83
2019-06-13 00:00:00 16.1 5 Sudeste 18 Sudeste 0 935.6 1.9 76
2019-06-12 23:00:00 17.3 8 Sudeste 28 Sudeste 0 935.3 1.9 67
2019-06-12 22:00:00 18.5 9 Sudeste 31 Sur 0 934.3 1.1 59
2019-06-12 21:00:00 20.4 7 Sur 30 Sur 0 933.7 -0.2 47
2019-06-12 20:00:00 22.8 9 Sur 31 Sur 0 933.4 -0.8 40
2019-06-12 19:00:00 24.5 9 Sudeste 28 Sur 0 933.2 -1.2 37
2019-06-12 18:00:00 23.7 6 Sur 23 Este 0 933.9 -1 39
2019-06-12 17:00:00 24.5 9 Sudeste 23 Sudeste 0 934.2 -1.6 40
2019-06-12 16:00:00 24.1 8 Sudeste 24 Sudoeste 0 934.4 -2.1 40
2019-06-12 15:00:00 23.6 7 Este 25 Este 0 934.9 -2 40
2019-06-12 14:00:00 21.7 9 Sudeste 31 Sur 0 935.8 -1.5 46
2019-06-12 13:00:00 19.7 8 Sudeste 24 Sur 0 936.5 -0.7 50
2019-06-12 12:00:00 17.5 8 Sur 27 Sudeste 0 936.9 -0.6 63
2019-06-12 11:00:00 15.7 6 Sur 23 Sur 0 937.3 0.1 67
2019-06-12 10:00:00 14.5 6 Sudeste 19 Sudeste 0 937.2 -0.1 67
2019-06-12 09:00:00 11.2 3 Este 10 Sudeste 0 937.5 0.7 83
2019-06-12 08:00:00 9.2 0 Calma 10 Este 0 937.2 0.8 88
2019-06-12 07:00:00 8.3 0 Calma 5 Este 0 937.3 1.1 90
2019-06-12 06:00:00 8.8 0 Calma 5 Este 0 936.8 0.3 93
2019-06-12 05:00:00 9.1 0 Calma 7 Este 0 936.4 -0.3 89
2019-06-12 04:00:00 9.7 0 Calma 6 Este 0 936.2 -1.1 87
2019-06-12 03:00:00 10.7 0 Calma 6 Este 0 936.5 -0.6 83
2019-06-12 02:00:00 11.8 0 Calma 8 Este 0 936.7 -0.2 78
2019-06-12 01:00:00 13.2 2 Este 12 Este 0 937.3 1.4 74
2019-06-12 00:00:00 14 5 Sudeste 14 Sudeste 0 937.1 2.1 74
2019-06-11 23:00:00 14.6 2 Este 16 Este 0 936.9 2.4 71
2019-06-11 22:00:00 15.8 6 Nordeste 19 Este 0 935.9 2.1 67
2019-06-11 21:00:00 17.2 9 Este 21 Este 0 935 1.6 62
2019-06-11 20:00:00 19.6 8 Nordeste 26 Este 0 934.5 1.9 53
2019-06-11 19:00:00 21.4 6 Nordeste 27 Nordeste 0 933.8 1.5 45
2019-06-11 18:00:00 22.7 6 Noroeste 21 Noroeste 0 933.4 1.1 39
2019-06-11 17:00:00 24 6 Noroeste 35 Oeste 0 932.6 0.4 37
2019-06-11 16:00:00 24.5 8 Noroeste 33 Oeste 0 932.3 -0.2 37
2019-06-11 15:00:00 24.2 9 Oeste 27 Oeste 0 932.3 -0.6 38
2019-06-11 14:00:00 23.7 6 Oeste 26 Oeste 0 932.2 -0.6 39
2019-06-11 13:00:00 23 8 Oeste 27 Oeste 0 932.5 -0.7 43
2019-06-11 12:00:00 21.2 8 Oeste 27 Oeste 0 932.9 -0.3 44
2019-06-11 11:00:00 19.4 7 Oeste 19 Oeste 0 932.8 -0.6 50
2019-06-11 10:00:00 18.1 8 Oeste 26 Sudoeste 0 933.2 -0.1 56
2019-06-11 09:00:00 16.4 9 Sudoeste 24 Oeste 0 933.2 0.1 65
2019-06-11 08:00:00 14.4 5 Sudoeste 15 Sudoeste 0 933.4 0 70
2019-06-11 07:00:00 14.2 7 Sudoeste 17 Oeste 0 933.3 -0.4 67
2019-06-11 06:00:00 14.8 8 Oeste 17 Oeste 0 933.1 -1.1 60
2019-06-11 05:00:00 16 6 Sudoeste 17 Sudoeste 0 933.4 -1.5 52
2019-06-11 04:00:00 16.2 4 Oeste 14 Sudoeste 0 933.7 -1.6 50
2019-06-11 03:00:00 17.2 6 Sudoeste 15 Sudoeste 0 934.2 -1.3 50
2019-06-11 02:00:00 18.6 4 Sur 12 Sur 0 934.9 -0.6 54
2019-06-11 01:00:00 18.7 4 Sur 12 Sur 0 935.3 0.4 55
2019-06-11 00:00:00 20.5 5 Sur 14 Sur 0 935.5 0.9 42
2019-06-10 23:00:00 21.2 4 Sudoeste 11 Oeste 0 935.5 0.8 36
2019-06-10 22:00:00 22.9 3 Noroeste 14 Oeste 0 934.9 0.2 31
2019-06-10 21:00:00 25 5 Oeste 21 Noroeste 0 934.6 -0.5 29
2019-06-10 20:00:00 26.6 7 Oeste 28 Oeste 0 934.7 -0.8 29
2019-06-10 19:00:00 27.1 7 Oeste 27 Oeste 0 934.7 -1.4 29
2019-06-10 18:00:00 27.3 7 Noroeste 23 Oeste 0 935.1 -1.7 30
2019-06-10 17:00:00 27.2 6 Noroeste 30 Oeste 0 935.5 -2.1 30
2019-06-10 16:00:00 26.6 5 Noroeste 25 Oeste 0 936.1 -1.8 32
2019-06-10 15:00:00 25.8 5 Noroeste 26 Noroeste 0 936.8 -1.3 33
2019-06-10 14:00:00 24.7 4 Noroeste 25 Oeste 0 937.6 -0.7 35
2019-06-10 13:00:00 23.7 4 Norte 30 Norte 0 937.9 -0.4 38
2019-06-10 12:00:00 21.8 6 Noroeste 24 Oeste 0 938.1 -0.6 41
2019-06-10 11:00:00 19.9 7 Oeste 17 Oeste 0 938.3 0 50
2019-06-10 10:00:00 17.8 6 Oeste 18 Oeste 0 938.3 0.5 54
2019-06-10 09:00:00 15.2 4 Oeste 17 Oeste 0 938.7 1 59
2019-06-10 08:00:00 13.8 5 Oeste 15 Oeste 0 938.3 0.3 60
2019-06-10 07:00:00 13.9 6 Oeste 17 Oeste 0 937.8 -0.3 57
2019-06-10 06:00:00 14.1 6 Sudoeste 16 Sudoeste 0 937.7 -0.7 53
2019-06-10 05:00:00 14.4 5 Sudoeste 14 Sudoeste 0 938 -0.5 49
2019-06-10 04:00:00 14.9 4 Oeste 13 Oeste 0 938.1 -0.5 45
2019-06-10 03:00:00 15.7 6 Oeste 13 Sudoeste 0 938.4 0.1 43
2019-06-10 02:00:00 17 3 Oeste 14 Oeste 0 938.5 0.6 40
2019-06-10 01:00:00 18.4 4 Oeste 14 Sudoeste 0 938.6 1.2 37
2019-06-10 00:00:00 19.8 5 Oeste 18 Oeste 0 938.3 1.8 37
2019-06-09 23:00:00 21.3 9 Oeste 19 Oeste 0 937.9 1.5 36
2019-06-09 22:00:00 23.5 8 Oeste 18 Sudoeste 0 937.4 1.3 36
2019-06-09 21:00:00 25.1 10 Oeste 22 Oeste 0 936.5 0.2 35
2019-06-09 20:00:00 27 8 Oeste 23 Oeste 0 936.4 -0.2 32
2019-06-09 19:00:00 27.6 9 Oeste 36 Oeste 0 936.1 -1.1 30
2019-06-09 18:00:00 29 9 Oeste 25 Oeste 0 936.3 -1.4 28
2019-06-09 17:00:00 28.5 7 Oeste 24 Sudoeste 0 936.6 -1.9 29
2019-06-09 16:00:00 28.1 9 Oeste 23 Oeste 0 937.2 -1.9 32
2019-06-09 15:00:00 26.8 9 Oeste 27 Noroeste 0 937.7 -1.9 33
2019-06-09 14:00:00 25.4 6 Sudoeste 19 Oeste 0 938.5 -1.2 39
2019-06-09 13:00:00 21.4 2 Oeste 16 Sudoeste 0 939.1 -0.7 53
2019-06-09 12:00:00 19.4 5 Oeste 14 Sudoeste 0 939.6 -0.4 60
2019-06-09 11:00:00 18.6 4 Oeste 14 Oeste 0 939.7 0.1 64
2019-06-09 10:00:00 16.1 0 Calma 7 Noroeste 0 939.8 0.3 71
2019-06-09 09:00:00 14.8 0 Calma 5 Este 0 940 0.5 77
2019-06-09 08:00:00 13.9 0 Calma 6 Nordeste 0 939.6 -0.5 78
2019-06-09 07:00:00 13.7 0 Calma 0 Calma 0 939.5 -0.8 77
2019-06-09 06:00:00 14.4 0 Calma 16 Sudeste 0 939.5 -0.9 76
2019-06-09 05:00:00 15 0 Calma 17 Sudeste 0 940.1 -1.1 77
2019-06-09 04:00:00 14.8 0 Calma 12 Sudeste 0 940.3 -1.5 79
2019-06-09 03:00:00 14.3 0 Calma 5 Este 0 940.4 -1.7 78
2019-06-09 02:00:00 14.5 0 Calma 3 Este 0 941.2 -0.7 77
2019-06-09 01:00:00 15 0 Calma 13 Este 0 941.8 0.5 74
2019-06-09 00:00:00 16.1 4 Este 14 Este 0 942.1 1.3 70
2019-06-08 23:00:00 17 5 Este 21 Sudeste 0 941.9 1.6 65
2019-06-08 22:00:00 18.7 7 Este 24 Este 0 941.3 1.1 61
2019-06-08 21:00:00 20.7 13 Este 30 Este 0 940.8 0.4 56
2019-06-08 20:00:00 23.1 11 Este 26 Este 0 940.3 -0.6 52
2019-06-08 19:00:00 23.9 11 Este 28 Este 0 940.2 -1 50
2019-06-08 18:00:00 25.8 8 Este 27 Sudeste 0 940.4 -1.4 46
2019-06-08 17:00:00 26.1 9 Este 27 Este 0 940.9 -1.8 46
2019-06-08 16:00:00 26.1 9 Este 35 Sudeste 0 941.2 -1.8 46
2019-06-08 15:00:00 24.8 11 Este 39 Este 0 941.8 -1.3 48
2019-06-08 14:00:00 24.5 8 Este 29 Sudeste 0 942.7 -0.8 49
2019-06-08 13:00:00 22.9 8 Este 31 Sudeste 0 943 -0.2 52
2019-06-08 12:00:00 21.1 10 Este 28 Nordeste 0 943.1 -0.1 59
2019-06-08 11:00:00 19.5 11 Este 28 Este 0 943.5 0.7 66
2019-06-08 10:00:00 17.9 10 Este 29 Este 0 943.2 0.8 71
2019-06-08 09:00:00 14 3 Este 9 Este 0 943.2 1 79
2019-06-08 08:00:00 11.8 4 Este 8 Nordeste 0 942.8 0.7 74
2019-06-08 07:00:00 11.4 0 Calma 7 Este 0 942.4 0.6 59
2019-06-08 06:00:00 11.6 3 Nordeste 6 Nordeste 0 942.2 0.5 56
2019-06-08 05:00:00 11.6 0 Calma 5 Este 0 942.1 0.2 51
2019-06-08 04:00:00 12.5 0 Calma 5 Este 0 941.8 -0.1 53
2019-06-08 03:00:00 13.8 0 Calma 5 Norte 0 941.7 -0.1 47
2019-06-08 02:00:00 14.8 0 Calma 4 Oeste 0 941.9 0.6 41
2019-06-08 01:00:00 15.9 0 Calma 6 Este 0 941.9 1.4 37
2019-06-08 00:00:00 16.6 2 Este 8 Este 0 941.8 1.9 37
2019-06-07 23:00:00 18.2 2 Este 7 Noroeste 0 941.3 2 36
2019-06-07 22:00:00 19.9 0 Calma 7 Noroeste 0 940.5 1.6 34
2019-06-07 21:00:00 22.8 0 Calma 15 Oeste 0 939.9 1.1 28
2019-06-07 20:00:00 24.5 3 Noroeste 19 Oeste 0 939.3 0.6 26
2019-06-07 19:00:00 25 5 Noroeste 22 Oeste 0 938.9 0.3 27
2019-06-07 18:00:00 25.3 6 Noroeste 22 Noroeste 0 938.8 0 30
2019-06-07 17:00:00 24.5 9 Oeste 32 Oeste 0 938.7 -0.4 34
2019-06-07 16:00:00 23.8 10 Oeste 29 Oeste 0 938.6 -0.4 37
2019-06-07 15:00:00 22.3 8 Oeste 31 Noroeste 0 938.8 0.1 43
2019-06-07 14:00:00 20.7 12 Oeste 32 Oeste 0 939.1 1.3 48
2019-06-07 13:00:00 18.6 10 Oeste 34 Oeste 0 939 1.5 57
2019-06-07 12:00:00 17.4 11 Oeste 36 Oeste 0 938.7 1.6 63
2019-06-07 11:00:00 16.9 9 Oeste 30 Oeste 0 937.8 1.5 65
2019-06-07 10:00:00 16.5 9 Oeste 33 Oeste 0 937.5 2 68
2019-06-07 09:00:00 14.9 11 Sudoeste 26 Sudoeste 0 937.1 2.1 71
2019-06-07 08:00:00 13.5 6 Sudoeste 17 Oeste 0 936.3 1.9 70
2019-06-07 07:00:00 13.3 5 Sudoeste 19 Sudoeste 0 935.5 1.1 65
2019-06-07 06:00:00 14.1 7 Sudoeste 19 Oeste 0 935 0.9 57
2019-06-07 05:00:00 15.3 9 Sudoeste 33 Sudoeste 0 934.4 0.3 48
2019-06-07 04:00:00 15.6 8 Sudoeste 19 Sudoeste 0 934.4 0.3 44
2019-06-07 03:00:00 16 4 Sudoeste 12 Sur 0 934.1 0.2 58
2019-06-07 02:00:00 16.5 4 Sur 13 Sudoeste 0 934.1 0.2 74
2019-06-07 01:00:00 17.4 2 Sur 19 Sudoeste 0 934.1 1 70
2019-06-07 00:00:00 18.4 5 Sur 21 Sudoeste 0 933.9 1.3 67
2019-06-06 23:00:00 19.2 6 Sur 22 Sur 0 933.9 1.8 60
2019-06-06 22:00:00 20.7 6 Sur 27 Sudoeste 0 933.1 1.1 50
2019-06-06 21:00:00 22.8 8 Sur 28 Sudoeste 0 932.6 0.1 42
2019-06-06 20:00:00 25.1 12 Sur 32 Sur 0 932.1 -1 33
2019-06-06 19:00:00 26.7 5 Sur 26 Sudeste 0 932 -1.8 29
2019-06-06 18:00:00 26.8 6 Sur 31 Sudoeste 0 932.5 -2.1 28
2019-06-06 17:00:00 27.4 8 Sudeste 23 Sur 0 933.1 -2.2 27
2019-06-06 16:00:00 26.5 5 Sur 34 Sudoeste 0 933.8 -2.1 28
2019-06-06 15:00:00 25.3 5 Sudeste 26 Oeste 0 934.6 -2 30
2019-06-06 14:00:00 24.3 7 Sur 28 Sudoeste 0 935.3 -1.7 32
2019-06-06 13:00:00 22.2 3 Sudeste 21 Sudeste 0 935.9 -1.5 37
2019-06-06 12:00:00 19.4 4 Sudeste 12 Este 0 936.6 -0.8 42
2019-06-06 11:00:00 16.8 2 Este 10 Este 0 937 -0.2 47
2019-06-06 10:00:00 14.2 0 Calma 8 Oeste 0 937.4 0.2 52
2019-06-06 09:00:00 12.2 0 Calma 9 Oeste 0 937.4 0.3 55
2019-06-06 08:00:00 11.4 3 Sudoeste 10 Oeste 0 937.2 0.5 55
2019-06-06 07:00:00 11 3 Sudoeste 6 Oeste 0 937.2 0.4 54
2019-06-06 06:00:00 11.6 0 Calma 8 Sudoeste 0 937.1 0 51
2019-06-06 05:00:00 12.4 3 Oeste 14 Sudoeste 0 936.7 -0.3 49
2019-06-06 04:00:00 13.2 5 Oeste 14 Oeste 0 936.8 -0.1 47
2019-06-06 03:00:00 13.2 5 Sudoeste 15 Sudoeste 0 937.1 0.2 47
2019-06-06 02:00:00 14.2 4 Sudoeste 11 Oeste 0 937 0.6 44
2019-06-06 01:00:00 15.6 5 Sudoeste 13 Oeste 0 936.9 1.2 42
2019-06-06 00:00:00 16.3 3 Sudoeste 12 Oeste 0 936.9 1.6 40
2019-06-05 23:00:00 17.7 6 Oeste 15 Oeste 0 936.4 1.4 37
2019-06-05 22:00:00 19.1 3 Noroeste 13 Oeste 0 935.7 0.9 34
2019-06-05 21:00:00 20.6 5 Noroeste 23 Oeste 0 935.3 0.9 31
2019-06-05 20:00:00 20.9 6 Noroeste 33 Oeste 0 935 0.5 31
2019-06-05 19:00:00 20.7 7 Noroeste 38 Oeste 0 934.8 0.2 31
2019-06-05 18:00:00 22.1 7 Noroeste 44 Oeste 0 934.4 -0.4 30
2019-06-05 17:00:00 22.4 11 Oeste 40 Oeste 0 934.5 -0.4 32
2019-06-05 16:00:00 22 13 Oeste 36 Oeste 0 934.6 -0.3 35
2019-06-05 15:00:00 20.2 13 Oeste 41 Oeste 0 934.8 -0.1 40
2019-06-05 14:00:00 19.4 12 Oeste 41 Oeste 0 934.9 0.1 43
2019-06-05 13:00:00 18.3 15 Oeste 39 Oeste 0 934.9 0.6 47
2019-06-05 12:00:00 17.3 15 Oeste 41 Oeste 0 934.9 1.4 50
2019-06-05 11:00:00 16 16 Oeste 45 Oeste 0 934.8 2.1 49
2019-06-05 10:00:00 15.1 18 Oeste 42 Oeste 0 934.3 2.1 53
2019-06-05 09:00:00 15.5 15 Oeste 36 Oeste 0 933.5 2.1 66
2019-06-05 08:00:00 15.3 8 Oeste 30 Oeste 0 932.7 1 73
2019-06-05 07:00:00 15.8 9 Oeste 22 Oeste 0 932.2 0.5 74
2019-06-05 06:00:00 17.5 5 Oeste 19 Oeste 0 931.4 -0.5 75
2019-06-05 05:00:00 18.7 7 Oeste 24 Sudoeste 0 931.7 -0.3 61
2019-06-05 04:00:00 19.1 3 Oeste 21 Oeste 0 931.7 -0.3 57
2019-06-05 03:00:00 20 7 Oeste 18 Oeste 0 931.9 -0.2 53
2019-06-05 02:00:00 21.4 9 Oeste 21 Oeste 0 932 -0.1 48
2019-06-05 01:00:00 22.5 7 Sudoeste 21 Sudoeste 0 932 0.5 43
2019-06-05 00:00:00 23.7 4 Sudoeste 25 Sudoeste 0 932.1 0.7 41
2019-06-04 23:00:00 24.7 5 Sudoeste 20 Oeste 0 932.1 0.6 36
2019-06-04 22:00:00 26.1 9 Oeste 22 Oeste 0 931.5 0 30
2019-06-04 21:00:00 27.5 6 Oeste 36 Oeste 0 931.4 -0.5 26
2019-06-04 20:00:00 29.5 16 Oeste 36 Oeste 0 931.5 -0.9 25
2019-06-04 19:00:00 30.4 14 Oeste 38 Oeste 0 931.5 -1.7 24
2019-06-04 18:00:00 31.1 15 Oeste 35 Noroeste 0 931.9 -2 23
2019-06-04 17:00:00 31.7 10 Oeste 33 Oeste 0 932.4 -2.3 22
2019-06-04 16:00:00 31.6 10 Oeste 29 Oeste 0 933.2 -2.1 23
2019-06-04 15:00:00 31.2 9 Oeste 28 Oeste 0 933.9 -2 24
2019-06-04 14:00:00 30 6 Oeste 27 Oeste 0 934.7 -1.3 28
2019-06-04 13:00:00 28.7 5 Oeste 21 Oeste 0 935.3 -1.3 31
2019-06-04 12:00:00 27.1 6 Oeste 19 Oeste 0 935.9 -0.6 36
2019-06-04 11:00:00 24.9 5 Oeste 15 Oeste 0 936 -0.4 41
2019-06-04 10:00:00 22.4 8 Sudoeste 18 Sudoeste 0 936.6 0.3 44
2019-06-04 09:00:00 19.5 4 Oeste 11 Oeste 0 936.5 0.7 49
2019-06-04 08:00:00 18.1 0 Calma 7 Sudoeste 0 936.4 0.4 53
2019-06-04 07:00:00 17.9 0 Calma 14 Sur 0 936.3 -0.2 51
2019-06-04 06:00:00 18.9 4 Sur 14 Sudeste 0 935.8 -1.1 49
2019-06-04 05:00:00 19.1 4 Sudeste 17 Sudeste 0 936 -1.3 49
2019-06-04 04:00:00 19.7 6 Sudeste 16 Sudeste 0 936.5 -1 49
2019-06-04 03:00:00 19.8 4 Sur 13 Sur 0 936.9 -0.8 50
2019-06-04 02:00:00 19.8 4 Sur 19 Sudoeste 0 937.3 -0.3 50
2019-06-04 01:00:00 20.9 9 Sur 26 Sudoeste 0 937.5 0.2 47
2019-06-04 00:00:00 22.1 7 Sudeste 27 Sur 0 937.7 0.5 45
2019-06-03 23:00:00 23.6 7 Sudeste 26 Sudeste 0 937.6 0.4 42
2019-06-03 22:00:00 25 9 Sur 28 Sur 0 937.3 0 39
2019-06-03 21:00:00 27.3 7 Sur 26 Sur 0 937.2 -0.3 33
2019-06-03 20:00:00 29.5 11 Sur 29 Sudoeste 0 937.2 -0.4 28
2019-06-03 19:00:00 31.1 8 Sur 30 Sur 0 937.3 -1 26
2019-06-03 18:00:00 32.6 8 Sur 28 Sur 0 937.5 -1.6 26
2019-06-03 17:00:00 33.6 5 Sudoeste 22 Sur 0 937.6 -2.2 25
2019-06-03 16:00:00 33.1 4 Oeste 14 Oeste 0 938.3 -1.9 26
2019-06-03 15:00:00 31.9 4 Oeste 18 Sudoeste 0 939.1 -1.5 27
2019-06-03 14:00:00 30.7 4 Sur 18 Sudoeste 0 939.8 -0.9 30
2019-06-03 13:00:00 29.5 6 Sudeste 17 Sudeste 0 940.2 -0.5 32
2019-06-03 12:00:00 26.6 5 Sudoeste 15 Sur 0 940.6 -0.1 34
2019-06-03 11:00:00 24.1 5 Sur 15 Sudoeste 0 940.7 0.2 39
2019-06-03 10:00:00 20.8 3 Sudeste 11 Este 0 940.7 0.5 46
2019-06-03 09:00:00 18.1 3 Este 12 Sur 0 940.7 0.8 50
2019-06-03 08:00:00 17.4 5 Sudeste 14 Sudeste 0 940.5 0.2 47
2019-06-03 07:00:00 16.6 4 Sudeste 16 Sudeste 0 940.2 0.1 47
2019-06-03 06:00:00 16.7 5 Sudeste 18 Sudeste 0 939.9 -0.4 47
2019-06-03 05:00:00 16.8 8 Sudeste 21 Sudeste 0 940.3 -0.3 46
2019-06-03 04:00:00 17.5 9 Sudeste 19 Sudeste 0 940.1 -0.9 44
2019-06-03 03:00:00 18.2 5 Sudeste 23 Sudeste 0 940.3 -0.6 42
2019-06-03 02:00:00 19 7 Sudeste 22 Sur 0 940.6 0.1 42
2019-06-03 01:00:00 19.7 8 Sudeste 26 Sudeste 0 941 0.9 39
2019-06-03 00:00:00 20.9 7 Sur 23 Sudeste 0 940.9 1.4 36
2019-06-02 23:00:00 22.1 9 Sudeste 26 Sudeste 0 940.5 1.1 34
2019-06-02 22:00:00 24.1 7 Sudeste 26 Sudoeste 0 940.1 0.9 30
2019-06-02 21:00:00 26.4 6 Sur 25 Sudoeste 0 939.5 -0.2 28
2019-06-02 20:00:00 29.3 7 Sur 22 Sudoeste 0 939.4 -0.5 26
2019-06-02 19:00:00 30.5 6 Sudoeste 21 Sudoeste 0 939.2 -1.2 26
2019-06-02 18:00:00 32.5 5 Nordeste 18 Sur 0 939.7 -1.3 25
2019-06-02 17:00:00 32 3 Sudeste 15 Sudeste 0 939.9 -1.8 26
2019-06-02 16:00:00 30.7 5 Sur 15 Sudoeste 0 940.4 -2.1 27
2019-06-02 15:00:00 29.7 3 Sudoeste 15 Sudoeste 0 941 -1.5 29
2019-06-02 14:00:00 28 5 Sudoeste 15 Sudeste 0 941.7 -1.1 30
2019-06-02 13:00:00 26.8 4 Sur 18 Sudeste 0 942.5 -0.3 33
2019-06-02 12:00:00 24.6 4 Sudeste 15 Sudeste 0 942.5 -0.2 36
2019-06-02 11:00:00 21.6 4 Sudeste 15 Sudeste 0 942.8 0.2 41
2019-06-02 10:00:00 18.7 3 Sudeste 18 Sudeste 0 942.8 0.3 45
2019-06-02 09:00:00 16.4 4 Sudeste 17 Sur 0 942.7 0.3 47
2019-06-02 08:00:00 14.9 4 Sudeste 16 Sudeste 0 942.6 0.1 48
2019-06-02 07:00:00 14.2 4 Sudeste 16 Sudeste 0 942.5 -0.3 49
2019-06-02 06:00:00 13.7 4 Este 10 Este 0 942.4 -0.7 50
2019-06-02 05:00:00 14.1 3 Este 10 Este 0 942.5 -1.1 50
2019-06-02 04:00:00 14.6 4 Este 11 Este 0 942.8 -0.7 49
2019-06-02 03:00:00 16.1 3 Este 15 Sudeste 0 943.1 -0.1 45
2019-06-02 02:00:00 17 4 Este 22 Sudeste 0 943.6 0.8 43
2019-06-02 01:00:00 18.2 7 Sudeste 20 Sudeste 0 943.5 1.5 40
2019-06-02 00:00:00 19.2 8 Sur 19 Sudeste 0 943.2 1.6 38
2019-06-01 23:00:00 20.5 7 Sudeste 21 Sur 0 942.8 1.4 37
2019-06-01 22:00:00 22.7 6 Sur 19 Sudoeste 0 942 0.8 34
2019-06-01 21:00:00 25.1 7 Sur 22 Sur 0 941.6 0.2 30
2019-06-01 20:00:00 27.2 9 Sur 23 Sudoeste 0 941.4 -0.2 27
2019-06-01 19:00:00 28.6 6 Sur 23 Sur 0 941.2 -1.1 27
2019-06-01 18:00:00 29.1 5 Sur 23 Sudeste 0 941.4 -1.4 27
2019-06-01 17:00:00 29.2 8 Sur 24 Sudoeste 0 941.6 -1.9 27
2019-06-01 16:00:00 29.8 7 Sur 36 Sudeste 0 942.3 -1.8 26
2019-06-01 15:00:00 29.6 7 Este 21 Nordeste 0 942.8 -1.7 26
2019-06-01 14:00:00 27.8 2 Este 14 Sur 0 943.5 -1.2 31
2019-06-01 13:00:00 25.4 0 Calma 9 Norte 0 944.1 -0.9 39
2019-06-01 12:00:00 22.1 0 Calma 11 Sudeste 0 944.5 -0.5 50
2019-06-01 11:00:00 19 3 Este 12 Este 0 944.7 -0.2 59
2019-06-01 10:00:00 16.4 2 Norte 6 Este 0 945 0.2 69
2019-06-01 09:00:00 13.4 2 Este 7 Este 0 945 0.5 82
2019-06-01 08:00:00 11.5 0 Calma 6 Este 0 944.9 0.5 82
2019-06-01 07:00:00 11.3 0 Calma 9 Este 0 944.8 0.3 79
2019-06-01 06:00:00 12.4 2 Este 8 Este 0 944.5 -0.1 75
2019-06-01 05:00:00 13.8 0 Calma 10 Este 0 944.4 -0.9 70
2019-06-01 04:00:00 15.1 4 Este 11 Sudeste 0 944.5 -1.2 65
2019-06-01 03:00:00 15.6 5 Sudeste 12 Sudeste 0 944.6 -0.8 63
2019-06-01 02:00:00 16.2 4 Este 10 Este 0 945.3 0.5 61
2019-06-01 01:00:00 17.2 4 Este 26 Este 0 945.7 1.5 57
2019-06-01 00:00:00 18.3 7 Sudeste 22 Sudeste 0 945.4 1.8 55
2019-05-31 23:00:00 20.1 6 Sudeste 20 Sudeste 0 944.8 1.5 50
2019-05-31 22:00:00 22.1 6 Sudeste 21 Sudoeste 0 944.2 0.8 41
2019-05-31 21:00:00 23.9 8 Sur 25 Sur 0 943.6 0 35
2019-05-31 20:00:00 26.1 6 Sur 26 Sudoeste 0 943.3 -0.7 32
2019-05-31 19:00:00 26.9 8 Sur 24 Sudoeste 0 943.4 -1.2 30
2019-05-31 18:00:00 28.2 6 Sur 23 Sudoeste 0 943.6 -1.6 30
2019-05-31 17:00:00 27.6 6 Sur 22 Sudeste 0 944 -1.6 30
2019-05-31 16:00:00 27.9 6 Sudeste 23 Sudeste 0 944.6 -1.4 30
2019-05-31 15:00:00 27.1 3 Sudeste 23 Sudeste 0 945.2 -1.1 32
2019-05-31 14:00:00 25.2 8 Sur 24 Sur 0 945.6 -1 34
2019-05-31 13:00:00 24 6 Sudeste 24 Sudeste 0 946 -0.4 36
2019-05-31 12:00:00 22.1 4 Sudeste 22 Sudoeste 0 946.3 -0.2 41
2019-05-31 11:00:00 19.9 6 Sur 19 Sudoeste 0 946.6 0.2 47
2019-05-31 10:00:00 17.4 6 Sudeste 17 Sudeste 0 946.4 0.3 59
2019-05-31 09:00:00 14 2 Este 10 Nordeste 0 946.5 0.7 80
2019-05-31 08:00:00 11.4 0 Calma 0 Calma 0 946.4 0.5 86
2019-05-31 07:00:00 11.2 0 Calma 6 Este 0 946.1 0.2 82
2019-05-31 06:00:00 12.3 0 Calma 10 Este 0 945.8 -0.7 78
2019-05-31 05:00:00 13.1 3 Este 12 Sudeste 0 945.9 -0.9 77
2019-05-31 04:00:00 13.7 2 Este 13 Sudeste 0 945.9 -0.9 72
2019-05-31 03:00:00 14.7 3 Sudeste 16 Sudeste 0 946.5 -0.2 67
2019-05-31 02:00:00 15.6 5 Sudeste 16 Sur 0 946.8 0.4 63
2019-05-31 01:00:00 16.4 5 Sudeste 20 Sur 0 946.8 1.3 60
2019-05-31 00:00:00 17.7 4 Sudeste 21 Sudeste 0 946.7 1.9 54
2019-05-30 23:00:00 18.8 6 Sudeste 23 Sudeste 0 946.4 2 48
2019-05-30 22:00:00 20.8 7 Sur 26 Sudoeste 0 945.5 1 42
2019-05-30 21:00:00 23 5 Sur 21 Sudoeste 0 944.8 0 36
2019-05-30 20:00:00 25 6 Sur 19 Oeste 0 944.4 -0.8 33
2019-05-30 19:00:00 25.8 5 Sudoeste 21 Sudoeste 0 944.5 -0.9 31
2019-05-30 18:00:00 26.6 6 Sur 21 Sudeste 0 944.8 -1.2 30
2019-05-30 17:00:00 26.3 5 Sur 26 Sudeste 0 945.2 -1.1 30
2019-05-30 16:00:00 26.2 5 Sur 19 Sur 0 945.4 -1.3 32
2019-05-30 15:00:00 24.9 6 Sudeste 20 Sudeste 0 946 -0.7 33
2019-05-30 14:00:00 23.5 3 Sur 20 Sudeste 0 946.3 -0.6 34
2019-05-30 13:00:00 22.3 4 Sudeste 19 Sudeste 0 946.7 -0.2 38
2019-05-30 12:00:00 20.5 3 Sudeste 18 Sudeste 0 946.7 -0.1 43
2019-05-30 11:00:00 18.1 7 Sudeste 17 Este 0 946.9 0.3 50
2019-05-30 10:00:00 15.5 3 Sudeste 12 Este 0 946.9 0.6 62
2019-05-30 09:00:00 11.9 4 Este 9 Este 0 946.8 1.1 76
2019-05-30 08:00:00 9.9 0 Calma 0 Calma 0 946.6 0.8 77
2019-05-30 07:00:00 10.1 0 Calma 7 Este 0 946.3 0.5 75
2019-05-30 06:00:00 10.9 0 Calma 8 Este 0 945.7 -0.1 73
2019-05-30 05:00:00 11.7 4 Este 9 Este 0 945.8 -0.1 70
2019-05-30 04:00:00 12.5 3 Este 13 Este 0 945.8 0.2 68
2019-05-30 03:00:00 13.2 4 Este 14 Sudeste 0 945.8 0.7 67
2019-05-30 02:00:00 14.4 4 Sudeste 19 Sur 0 945.9 1.6 62
2019-05-30 01:00:00 15.3 5 Sudeste 19 Sudeste 0 945.6 2.7 60
2019-05-30 00:00:00 16.5 7 Sudeste 24 Sudeste 0 945.1 2.8 56
2019-05-29 23:00:00 18.2 8 Sudeste 27 Sudeste 0 944.3 2.5 46
2019-05-29 22:00:00 21.5 2 Nordeste 11 Sudoeste 0 942.9 1 33
2019-05-29 21:00:00 23.6 0 Calma 11 Oeste 0 942.3 0.4 29
2019-05-29 20:00:00 25.1 0 Calma 15 Oeste 0 941.8 -0.3 27
2019-05-29 19:00:00 25.9 3 Noroeste 19 Oeste 0 941.9 -0.5 26
2019-05-29 18:00:00 26 6 Oeste 15 Oeste 0 941.9 -1.1 26
2019-05-29 17:00:00 25.6 3 Oeste 15 Este 0 942.1 -1.2 27
2019-05-29 16:00:00 24.2 6 Oeste 22 Noroeste 0 942.4 -1.1 29
2019-05-29 15:00:00 22.3 5 Oeste 17 Norte 0 943 -0.5 31
2019-05-29 14:00:00 20.5 6 Oeste 16 Norte 0 943.3 -0.5 33
2019-05-29 13:00:00 18.9 4 Oeste 17 Oeste 0 943.5 -0.5 37
2019-05-29 12:00:00 17.3 4 Nordeste 19 Norte 0 943.5 0 42
2019-05-29 11:00:00 15.3 4 Nordeste 14 Este 0 943.8 0.4 49
2019-05-29 10:00:00 12.6 3 Noroeste 12 Oeste 0 944 1.4 61
2019-05-29 09:00:00 10.9 0 Calma 9 Nordeste 0 943.5 1.4 67
2019-05-29 08:00:00 9.6 0 Calma 7 Noroeste 0 943.4 1.5 72
2019-05-29 07:00:00 9.6 0 Calma 9 Este 0 942.6 1.1 70
2019-05-29 06:00:00 10.4 0 Calma 11 Este 0 942.1 0.8 70
2019-05-29 05:00:00 11.3 0 Calma 15 Este 0 941.9 0.7 69
2019-05-29 04:00:00 12.3 0 Calma 8 Este 0 941.5 0.9 72
2019-05-29 03:00:00 13.6 0 Calma 6 Este 0 941.3 1.3 75
2019-05-29 02:00:00 14.5 0 Calma 13 Nordeste 0 941.2 2 73
2019-05-29 01:00:00 15.4 4 Nordeste 14 Este 0 940.6 2.5 70
2019-05-29 00:00:00 16.6 6 Nordeste 18 Este 0 940 2.4 67
2019-05-28 23:00:00 19.2 4 Nordeste 15 Este 0 939.2 2.3 42
2019-05-28 22:00:00 21 3 Noroeste 13 Noroeste 0 938.1 1.8 30
2019-05-28 21:00:00 23.5 5 Noroeste 25 Noroeste 0 937.6 1.6 25
2019-05-28 20:00:00 26.8 5 Noroeste 22 Oeste 0 936.9 1.1 21
2019-05-28 19:00:00 27.9 5 Noroeste 26 Oeste 0 936.3 0.3 21
2019-05-28 18:00:00 27.9 9 Oeste 34 Oeste 0 936 -0.1 24
2019-05-28 17:00:00 28.1 9 Oeste 29 Oeste 0 935.8 -0.9 27
2019-05-28 16:00:00 28.1 7 Oeste 27 Oeste 0 936 -1 30
2019-05-28 15:00:00 27.6 5 Oeste 27 Oeste 0 936.1 -1.1 33
2019-05-28 14:00:00 25.7 2 Norte 20 Oeste 0 936.7 -0.4 39
2019-05-28 13:00:00 23.7 3 Noroeste 19 Oeste 0 937 0 46
2019-05-28 12:00:00 21.1 2 Norte 9 Noroeste 0 937.2 0.3 56
2019-05-28 11:00:00 18.5 2 Oeste 7 Oeste 0 937.1 0.7 62
2019-05-28 10:00:00 16.4 0 Calma 7 Norte 0 937 1.1 71
2019-05-28 09:00:00 14.4 0 Calma 4 Noroeste 0 936.9 1 76
2019-05-28 08:00:00 12.8 0 Calma 4 Nordeste 0 936.4 0.5 81
2019-05-28 07:00:00 12.9 0 Calma 7 Nordeste 0 935.9 0.1 78
2019-05-28 06:00:00 13.5 0 Calma -- -- 0 935.9 0.1 74
2019-05-28 05:00:00 13.6 0 Calma 4 Este 0 935.9 0.6 73
2019-05-28 04:00:00 14.2 0 Calma 8 Este 0 935.8 0.2 70
2019-05-28 03:00:00 14.6 0 Calma 11 Este 0 935.8 0.6 71
2019-05-28 02:00:00 15.1 0 Calma 14 Nordeste 0 935.3 0.8 72
2019-05-28 01:00:00 16.5 6 Este 18 Nordeste 0 935.6 1.8 68
2019-05-28 00:00:00 18.5 4 Nordeste 15 Este 0 935.2 1.7 63